Time;durP1;ratioP1;P1;durP2;ratioP2;P2;SDS_P1;SDS_P2;PMS_P1;PMS_P2;Temp;Humidity;BMP_temperature;BMP_pressure;BME280_temperature;BME280_humidity;BME280_pressure;Samples;Min_cycle;Max_cycle;Signal;HPM_P1;HPM_P2
2023/09/09 00:07:19;;;;;;;6.13;3.20;;;;;;;24.90;44.72;100722.81;41992880;28;20059;-76
2023/09/09 00:27:19;;;;;;;4.57;3.75;;;;;;;24.77;45.10;100706.34;42011914;27;20097;-77
2023/09/09 00:47:19;;;;;;;4.75;3.30;;;;;;;24.71;45.12;100694.47;41997447;27;20055;-76
2023/09/09 01:07:20;;;;;;;3.90;3.17;;;;;;;24.22;45.18;100617.50;41961771;28;20131;-76
2023/09/09 01:27:20;;;;;;;4.18;3.40;;;;;;;24.62;45.32;100684.66;41967872;28;20399;-76
2023/09/09 01:47:21;;;;;;;5.38;3.35;;;;;;;24.77;45.18;100709.81;41991513;28;20040;-78
2023/09/09 02:07:21;;;;;;;4.82;3.45;;;;;;;24.58;45.39;100688.53;42028454;28;20037;-76
2023/09/09 02:27:23;;;;;;;4.53;3.40;;;;;;;24.67;45.36;100695.72;42021694;28;20040;-76
2023/09/09 02:47:23;;;;;;;3.83;3.35;;;;;;;24.55;45.07;100684.34;42015281;27;20426;-76
2023/09/09 03:07:23;;;;;;;3.67;3.28;;;;;;;24.73;45.16;100705.75;42018582;28;20139;-77
2023/09/09 03:27:24;;;;;;;3.47;3.17;;;;;;;24.50;45.40;100652.16;42015908;27;20044;-77
2023/09/09 03:47:25;;;;;;;3.85;3.05;;;;;;;24.62;45.38;100676.72;42018317;27;20079;-76
2023/09/09 04:07:25;;;;;;;4.75;3.17;;;;;;;24.55;45.40;100673.75;42007064;28;20036;-76
2023/09/09 04:27:26;;;;;;;3.83;3.42;;;;;;;24.84;45.19;100712.78;41997315;28;20093;-74
2023/09/09 04:47:27;;;;;;;10.68;3.33;;;;;;;24.70;46.26;100692.78;41992659;28;20047;-76
2023/09/09 05:07:29;;;;;;;7.47;4.68;;;;;;;24.33;46.69;100685.38;41997936;28;20402;-76
2023/09/09 05:27:30;;;;;;;12.85;4.63;;;;;;;24.46;46.97;100707.16;42032058;28;20063;-78
2023/09/09 05:47:30;;;;;;;6.90;4.03;;;;;;;24.68;46.50;100720.38;42071970;28;20111;-81
2023/09/09 06:07:31;;;;;;;7.97;3.47;;;;;;;24.78;46.39;100739.78;42073323;28;20056;-80
2023/09/09 06:27:31;;;;;;;5.53;4.05;;;;;;;24.55;46.24;100713.47;42067360;28;20568;-80
2023/09/09 06:47:32;;;;;;;6.10;3.47;;;;;;;24.68;46.31;100738.91;42070388;27;20121;-80
2023/09/09 07:07:33;;;;;;;4.63;3.58;;;;;;;24.65;46.29;100757.69;42093194;27;20044;-81
2023/09/09 07:27:34;;;;;;;5.45;3.75;;;;;;;24.45;46.22;100710.78;42073976;28;20410;-81
2023/09/09 07:47:34;;;;;;;4.20;3.30;;;;;;;24.77;46.28;100762.78;42067933;28;20037;-81
2023/09/09 08:07:35;;;;;;;4.72;3.20;;;;;;;24.58;46.11;100725.59;42058727;28;20137;-80
2023/09/09 08:27:36;;;;;;;3.60;3.00;;;;;;;24.56;46.17;100716.94;42050934;28;20086;-80
2023/09/09 08:47:40;;;;;;;5.20;3.22;;;;;;;24.82;46.20;100745.66;42037066;28;20676;-82
2023/09/09 09:07:40;;;;;;;4.38;3.17;;;;;;;24.85;46.35;100751.53;42039976;28;20041;-82
2023/09/09 09:27:41;;;;;;;3.70;3.13;;;;;;;24.67;46.26;100703.66;42078821;28;20041;-80
2023/09/09 09:47:48;;;;;;;2.97;2.67;;;;;;;24.89;46.29;100721.13;42061103;28;20040;-79
2023/09/09 10:08:09;;;;;;;2.85;2.55;;;;;;;25.15;46.06;100736.53;42056332;28;20557;-81
2023/09/09 10:28:11;;;;;;;2.90;2.47;;;;;;;24.98;45.92;100703.59;42083576;27;20048;-80
2023/09/09 10:48:13;;;;;;;2.70;2.50;;;;;;;25.01;46.01;100668.03;42062592;27;20041;-81
2023/09/09 11:08:43;;;;;;;2.58;2.33;;;;;;;25.33;45.66;100691.66;42077410;27;20127;-82
2023/09/09 11:28:47;;;;;;;2.95;2.65;;;;;;;25.53;45.62;100696.97;42075731;27;20047;-81
2023/09/09 11:48:48;;;;;;;2.70;2.50;;;;;;;25.51;45.73;100654.69;42074689;28;20044;-80
2023/09/09 12:08:49;;;;;;;2.28;2.08;;;;;;;25.68;45.58;100636.38;42089626;28;20036;-83
2023/09/09 12:29:11;;;;;;;2.58;2.30;;;;;;;25.92;45.02;100633.25;42079135;28;20066;-80
2023/09/09 12:49:11;;;;;;;2.42;2.00;;;;;;;25.69;45.45;100575.22;42066937;28;20150;-82
2023/09/09 13:09:12;;;;;;;3.08;1.73;;;;;;;25.83;45.27;100568.63;42079278;28;20032;-82
2023/09/09 13:29:12;;;;;;;2.22;2.03;;;;;;;26.08;44.80;100582.25;42073406;28;20044;-81
2023/09/09 13:49:13;;;;;;;2.05;1.85;;;;;;;26.17;44.81;100581.38;42080121;28;20063;-81
2023/09/09 14:09:14;;;;;;;1.63;1.52;;;;;;;26.32;44.90;100588.84;42073533;27;20171;-80
2023/09/09 14:29:14;;;;;;;1.73;1.63;;;;;;;26.11;44.92;100523.59;42079808;28;20087;-82
2023/09/09 14:49:14;;;;;;;1.85;1.75;;;;;;;26.43;44.81;100570.06;42087174;28;20123;-82
2023/09/09 15:09:15;;;;;;;1.95;1.80;;;;;;;26.24;44.40;100511.78;42084525;28;20414;-81
2023/09/09 15:29:15;;;;;;;2.92;1.77;;;;;;;26.04;44.64;100480.03;42087625;28;20047;-82
2023/09/09 15:49:17;;;;;;;1.70;1.60;;;;;;;26.25;44.61;100516.94;42073838;28;20048;-82
2023/09/09 16:09:17;;;;;;;1.95;1.60;;;;;;;26.35;44.75;100562.00;42075166;28;20120;-81
2023/09/09 16:29:18;;;;;;;1.90;1.80;;;;;;;25.84;44.82;100487.22;42066663;27;20051;-82
2023/09/09 16:49:20;;;;;;;2.10;1.80;;;;;;;26.01;45.11;100544.84;42086387;28;20389;-82
2023/09/09 17:09:20;;;;;;;1.70;1.60;;;;;;;25.78;45.64;100539.06;42070102;28;20051;-83
2023/09/09 17:29:21;;;;;;;1.55;1.45;;;;;;;25.78;45.49;100559.44;42094261;28;20041;-80
2023/09/09 17:49:22;;;;;;;1.92;1.60;;;;;;;25.57;45.85;100550.72;42076505;28;20068;-79
2023/09/09 18:09:22;;;;;;;2.10;1.90;;;;;;;25.64;45.85;100590.75;42080436;27;20040;-79
2023/09/09 18:29:24;;;;;;;1.98;1.88;;;;;;;25.44;46.25;100586.47;42080671;27;20082;-80
2023/09/09 18:49:25;;;;;;;2.40;1.90;;;;;;;25.26;46.02;100582.69;42073612;28;20506;-79
2023/09/09 19:09:25;;;;;;;2.25;2.05;;;;;;;25.38;46.31;100609.09;42085549;27;20036;-79
2023/09/09 19:29:26;;;;;;;2.10;1.90;;;;;;;25.39;45.99;100616.91;42057773;27;20044;-79
2023/09/09 19:49:27;;;;;;;2.38;2.08;;;;;;;25.33;46.24;100624.53;42083659;28;20128;-80
2023/09/09 20:09:29;;;;;;;2.55;2.33;;;;;;;25.46;46.31;100648.97;42072132;28;20059;-80
2023/09/09 20:29:30;;;;;;;3.08;2.20;;;;;;;25.35;46.36;100631.38;42080738;28;20127;-79
2023/09/09 20:49:31;;;;;;;3.28;2.10;;;;;;;25.41;46.32;100675.91;42080797;28;20101;-79
2023/09/09 21:09:31;;;;;;;2.40;2.20;;;;;;;25.44;46.18;100684.53;42078555;28;20048;-78
2023/09/09 21:29:32;;;;;;;3.13;2.40;;;;;;;25.01;46.29;100620.34;42051603;27;20123;-79
2023/09/09 21:49:32;;;;;;;3.10;2.80;;;;;;;25.23;46.22;100657.19;42057306;27;20040;-80
2023/09/09 22:09:32;;;;;;;2.67;2.47;;;;;;;25.26;46.58;100666.66;42085023;27;20044;-79
2023/09/09 22:29:33;;;;;;;2.67;2.45;;;;;;;25.26;46.41;100664.03;42104401;28;20511;-78
2023/09/09 22:49:35;;;;;;;3.00;2.50;;;;;;;25.18;46.43;100650.63;42094906;28;20047;-80
2023/09/09 23:09:35;;;;;;;3.65;2.60;;;;;;;25.14;46.10;100654.53;42085899;28;20044;-78
2023/09/09 23:29:36;;;;;;;3.45;2.50;;;;;;;25.25;46.13;100667.63;42087555;28;20056;-78
2023/09/09 23:49:36;;;;;;;2.60;2.40;;;;;;;25.18;46.29;100666.53;42079958;28;20044;-79
